sensor_id;sensor_type;location;lat;lon;timestamp;P1;durP1;ratioP1;P2;durP2;ratioP2
36747;SDS011;22716;51.556;5.080;2023-01-29T00:00:51;24.50;;;13.40;;
36747;SDS011;22716;51.556;5.080;2023-01-29T00:03:19;23.80;;;12.37;;
36747;SDS011;22716;51.556;5.080;2023-01-29T00:05:49;23.73;;;13.13;;
36747;SDS011;22716;51.556;5.080;2023-01-29T00:08:18;32.30;;;14.33;;
36747;SDS011;22716;51.556;5.080;2023-01-29T00:10:50;24.43;;;13.80;;
36747;SDS011;22716;51.556;5.080;2023-01-29T00:13:19;20.63;;;12.73;;
36747;SDS011;22716;51.556;5.080;2023-01-29T00:15:52;24.87;;;13.80;;
36747;SDS011;22716;51.556;5.080;2023-01-29T00:18:22;19.03;;;12.87;;
36747;SDS011;22716;51.556;5.080;2023-01-29T00:20:51;22.70;;;12.63;;
36747;SDS011;22716;51.556;5.080;2023-01-29T00:23:20;21.83;;;13.53;;
36747;SDS011;22716;51.556;5.080;2023-01-29T00:25:52;22.57;;;12.90;;
36747;SDS011;22716;51.556;5.080;2023-01-29T00:28:21;22.87;;;13.77;;
36747;SDS011;22716;51.556;5.080;2023-01-29T00:30:51;19.00;;;12.43;;
36747;SDS011;22716;51.556;5.080;2023-01-29T00:33:20;18.23;;;11.87;;
36747;SDS011;22716;51.556;5.080;2023-01-29T00:35:48;22.03;;;13.57;;
36747;SDS011;22716;51.556;5.080;2023-01-29T00:38:17;18.33;;;11.97;;
36747;SDS011;22716;51.556;5.080;2023-01-29T00:40:46;19.33;;;12.00;;
36747;SDS011;22716;51.556;5.080;2023-01-29T00:43:30;24.90;;;12.43;;
36747;SDS011;22716;51.556;5.080;2023-01-29T00:46:12;19.55;;;12.60;;
36747;SDS011;22716;51.556;5.080;2023-01-29T00:48:41;21.70;;;12.93;;
36747;SDS011;22716;51.556;5.080;2023-01-29T00:51:09;23.70;;;13.60;;
36747;SDS011;22716;51.556;5.080;2023-01-29T00:53:38;22.67;;;12.00;;
36747;SDS011;22716;51.556;5.080;2023-01-29T00:56:07;19.30;;;12.67;;
36747;SDS011;22716;51.556;5.080;2023-01-29T00:58:39;17.93;;;11.53;;
36747;SDS011;22716;51.556;5.080;2023-01-29T01:01:07;23.73;;;12.67;;
36747;SDS011;22716;51.556;5.080;2023-01-29T01:03:36;20.67;;;11.77;;
36747;SDS011;22716;51.556;5.080;2023-01-29T01:06:07;21.43;;;12.00;;
36747;SDS011;22716;51.556;5.080;2023-01-29T01:08:37;20.30;;;12.53;;
36747;SDS011;22716;51.556;5.080;2023-01-29T01:11:19;22.33;;;12.90;;
36747;SDS011;22716;51.556;5.080;2023-01-29T01:13:50;21.10;;;12.97;;
36747;SDS011;22716;51.556;5.080;2023-01-29T01:16:19;22.43;;;12.73;;
36747;SDS011;22716;51.556;5.080;2023-01-29T01:18:51;23.03;;;12.97;;
36747;SDS011;22716;51.556;5.080;2023-01-29T01:21:20;22.93;;;12.63;;
36747;SDS011;22716;51.556;5.080;2023-01-29T01:23:48;23.80;;;13.37;;
36747;SDS011;22716;51.556;5.080;2023-01-29T01:26:17;19.33;;;12.47;;
36747;SDS011;22716;51.556;5.080;2023-01-29T01:28:46;20.30;;;12.67;;
36747;SDS011;22716;51.556;5.080;2023-01-29T01:31:17;22.60;;;14.40;;
36747;SDS011;22716;51.556;5.080;2023-01-29T01:33:46;21.87;;;13.30;;
36747;SDS011;22716;51.556;5.080;2023-01-29T01:36:16;21.63;;;14.23;;
36747;SDS011;22716;51.556;5.080;2023-01-29T01:38:45;23.80;;;13.57;;
36747;SDS011;22716;51.556;5.080;2023-01-29T01:41:14;23.17;;;14.67;;
36747;SDS011;22716;51.556;5.080;2023-01-29T01:43:50;22.50;;;14.53;;
36747;SDS011;22716;51.556;5.080;2023-01-29T01:46:24;26.10;;;13.33;;
36747;SDS011;22716;51.556;5.080;2023-01-29T01:48:56;23.15;;;14.55;;
36747;SDS011;22716;51.556;5.080;2023-01-29T01:51:29;24.77;;;14.10;;
36747;SDS011;22716;51.556;5.080;2023-01-29T01:54:01;20.90;;;12.20;;
36747;SDS011;22716;51.556;5.080;2023-01-29T01:56:35;23.45;;;13.68;;
36747;SDS011;22716;51.556;5.080;2023-01-29T01:59:11;26.90;;;14.43;;
36747;SDS011;22716;51.556;5.080;2023-01-29T02:01:46;23.77;;;13.53;;
36747;SDS011;22716;51.556;5.080;2023-01-29T02:04:19;21.63;;;13.77;;
36747;SDS011;22716;51.556;5.080;2023-01-29T02:07:03;25.40;;;13.77;;
36747;SDS011;22716;51.556;5.080;2023-01-29T02:09:49;20.63;;;13.57;;
36747;SDS011;22716;51.556;5.080;2023-01-29T02:12:20;22.07;;;13.37;;
36747;SDS011;22716;51.556;5.080;2023-01-29T02:14:50;20.97;;;13.63;;
36747;SDS011;22716;51.556;5.080;2023-01-29T02:17:22;23.43;;;14.13;;
36747;SDS011;22716;51.556;5.080;2023-01-29T02:19:52;21.47;;;13.63;;
36747;SDS011;22716;51.556;5.080;2023-01-29T02:22:37;21.47;;;12.90;;
36747;SDS011;22716;51.556;5.080;2023-01-29T02:25:34;22.95;;;14.18;;
36747;SDS011;22716;51.556;5.080;2023-01-29T02:28:30;22.97;;;13.67;;
36747;SDS011;22716;51.556;5.080;2023-01-29T02:31:05;22.70;;;14.83;;
36747;SDS011;22716;51.556;5.080;2023-01-29T02:33:42;24.57;;;14.37;;
36747;SDS011;22716;51.556;5.080;2023-01-29T02:36:21;24.40;;;13.67;;
36747;SDS011;22716;51.556;5.080;2023-01-29T02:39:00;24.07;;;14.47;;
36747;SDS011;22716;51.556;5.080;2023-01-29T02:41:41;22.90;;;14.37;;
36747;SDS011;22716;51.556;5.080;2023-01-29T02:44:18;22.63;;;14.57;;
36747;SDS011;22716;51.556;5.080;2023-01-29T02:46:53;21.37;;;13.47;;
36747;SDS011;22716;51.556;5.080;2023-01-29T02:49:29;23.88;;;15.05;;
36747;SDS011;22716;51.556;5.080;2023-01-29T02:52:03;22.23;;;13.57;;
36747;SDS011;22716;51.556;5.080;2023-01-29T02:54:38;25.55;;;14.82;;
36747;SDS011;22716;51.556;5.080;2023-01-29T02:57:13;23.00;;;13.87;;
36747;SDS011;22716;51.556;5.080;2023-01-29T02:59:53;24.47;;;12.73;;
36747;SDS011;22716;51.556;5.080;2023-01-29T03:02:27;26.33;;;16.70;;
36747;SDS011;22716;51.556;5.080;2023-01-29T03:05:02;25.35;;;14.90;;
36747;SDS011;22716;51.556;5.080;2023-01-29T03:07:36;23.13;;;14.73;;
36747;SDS011;22716;51.556;5.080;2023-01-29T03:10:12;25.57;;;15.27;;
36747;SDS011;22716;51.556;5.080;2023-01-29T03:12:46;23.93;;;14.53;;
36747;SDS011;22716;51.556;5.080;2023-01-29T03:15:27;25.40;;;14.47;;
36747;SDS011;22716;51.556;5.080;2023-01-29T03:18:05;25.47;;;15.07;;
36747;SDS011;22716;51.556;5.080;2023-01-29T03:20:39;23.77;;;15.87;;
36747;SDS011;22716;51.556;5.080;2023-01-29T03:23:14;26.50;;;15.20;;
36747;SDS011;22716;51.556;5.080;2023-01-29T03:25:48;28.20;;;16.70;;
36747;SDS011;22716;51.556;5.080;2023-01-29T03:28:33;23.70;;;14.07;;
36747;SDS011;22716;51.556;5.080;2023-01-29T03:31:18;25.43;;;15.83;;
36747;SDS011;22716;51.556;5.080;2023-01-29T03:34:00;28.50;;;15.27;;
36747;SDS011;22716;51.556;5.080;2023-01-29T03:36:35;26.17;;;15.67;;
36747;SDS011;22716;51.556;5.080;2023-01-29T03:39:12;25.70;;;15.77;;
36747;SDS011;22716;51.556;5.080;2023-01-29T03:41:43;25.00;;;13.80;;
36747;SDS011;22716;51.556;5.080;2023-01-29T03:44:16;24.70;;;14.53;;
36747;SDS011;22716;51.556;5.080;2023-01-29T03:46:55;25.63;;;14.83;;
36747;SDS011;22716;51.556;5.080;2023-01-29T03:49:29;26.87;;;16.57;;
36747;SDS011;22716;51.556;5.080;2023-01-29T03:52:07;24.47;;;15.47;;
36747;SDS011;22716;51.556;5.080;2023-01-29T03:54:44;25.97;;;16.00;;
36747;SDS011;22716;51.556;5.080;2023-01-29T03:57:23;22.60;;;14.60;;
36747;SDS011;22716;51.556;5.080;2023-01-29T04:00:00;29.80;;;17.03;;
36747;SDS011;22716;51.556;5.080;2023-01-29T04:02:41;28.00;;;16.20;;
36747;SDS011;22716;51.556;5.080;2023-01-29T04:05:16;26.57;;;15.33;;
36747;SDS011;22716;51.556;5.080;2023-01-29T04:07:49;27.60;;;16.23;;
36747;SDS011;22716;51.556;5.080;2023-01-29T04:10:23;27.08;;;16.20;;
36747;SDS011;22716;51.556;5.080;2023-01-29T04:12:55;25.60;;;16.03;;
36747;SDS011;22716;51.556;5.080;2023-01-29T04:15:28;27.70;;;15.43;;
36747;SDS011;22716;51.556;5.080;2023-01-29T04:18:02;27.63;;;16.20;;
36747;SDS011;22716;51.556;5.080;2023-01-29T04:20:31;26.83;;;16.53;;
36747;SDS011;22716;51.556;5.080;2023-01-29T04:22:59;27.23;;;16.07;;
36747;SDS011;22716;51.556;5.080;2023-01-29T04:25:29;28.60;;;17.30;;
36747;SDS011;22716;51.556;5.080;2023-01-29T04:28:10;30.50;;;17.33;;
36747;SDS011;22716;51.556;5.080;2023-01-29T04:30:45;28.30;;;15.90;;
36747;SDS011;22716;51.556;5.080;2023-01-29T04:33:24;27.13;;;16.37;;
36747;SDS011;22716;51.556;5.080;2023-01-29T04:36:07;26.97;;;16.77;;
36747;SDS011;22716;51.556;5.080;2023-01-29T04:38:50;23.97;;;15.37;;
36747;SDS011;22716;51.556;5.080;2023-01-29T04:41:31;28.73;;;17.33;;
36747;SDS011;22716;51.556;5.080;2023-01-29T04:44:07;34.50;;;19.07;;
36747;SDS011;22716;51.556;5.080;2023-01-29T04:46:45;26.10;;;17.23;;
36747;SDS011;22716;51.556;5.080;2023-01-29T04:49:27;27.70;;;15.77;;
36747;SDS011;22716;51.556;5.080;2023-01-29T04:52:01;29.13;;;17.33;;
36747;SDS011;22716;51.556;5.080;2023-01-29T04:54:40;27.53;;;16.97;;
36747;SDS011;22716;51.556;5.080;2023-01-29T04:57:19;24.57;;;15.87;;
36747;SDS011;22716;51.556;5.080;2023-01-29T04:59:55;26.30;;;16.17;;
36747;SDS011;22716;51.556;5.080;2023-01-29T05:02:28;29.93;;;18.03;;
36747;SDS011;22716;51.556;5.080;2023-01-29T05:05:04;30.40;;;18.37;;
36747;SDS011;22716;51.556;5.080;2023-01-29T05:07:36;27.45;;;17.80;;
36747;SDS011;22716;51.556;5.080;2023-01-29T05:10:07;28.10;;;15.97;;
36747;SDS011;22716;51.556;5.080;2023-01-29T05:12:38;31.80;;;18.40;;
36747;SDS011;22716;51.556;5.080;2023-01-29T05:15:11;26.00;;;16.20;;
36747;SDS011;22716;51.556;5.080;2023-01-29T05:17:48;28.43;;;17.57;;
36747;SDS011;22716;51.556;5.080;2023-01-29T05:20:20;29.97;;;17.83;;
36747;SDS011;22716;51.556;5.080;2023-01-29T05:22:49;29.67;;;18.17;;
36747;SDS011;22716;51.556;5.080;2023-01-29T05:25:20;30.67;;;18.90;;
36747;SDS011;22716;51.556;5.080;2023-01-29T05:27:51;28.33;;;18.23;;
36747;SDS011;22716;51.556;5.080;2023-01-29T05:30:31;33.40;;;19.67;;
36747;SDS011;22716;51.556;5.080;2023-01-29T05:33:01;28.67;;;18.90;;
36747;SDS011;22716;51.556;5.080;2023-01-29T05:35:34;28.07;;;18.13;;
36747;SDS011;22716;51.556;5.080;2023-01-29T05:38:03;31.23;;;19.13;;
36747;SDS011;22716;51.556;5.080;2023-01-29T05:40:31;30.67;;;18.47;;
36747;SDS011;22716;51.556;5.080;2023-01-29T05:43:00;28.70;;;19.10;;
36747;SDS011;22716;51.556;5.080;2023-01-29T05:45:30;27.40;;;17.80;;
36747;SDS011;22716;51.556;5.080;2023-01-29T05:47:59;26.03;;;16.90;;
36747;SDS011;22716;51.556;5.080;2023-01-29T05:50:28;26.20;;;17.27;;
36747;SDS011;22716;51.556;5.080;2023-01-29T05:52:59;25.73;;;16.90;;
36747;SDS011;22716;51.556;5.080;2023-01-29T05:55:30;26.50;;;18.60;;
36747;SDS011;22716;51.556;5.080;2023-01-29T05:57:58;25.87;;;17.13;;
36747;SDS011;22716;51.556;5.080;2023-01-29T06:00:27;25.40;;;16.33;;
36747;SDS011;22716;51.556;5.080;2023-01-29T06:02:57;26.03;;;16.50;;
36747;SDS011;22716;51.556;5.080;2023-01-29T06:05:26;27.67;;;16.90;;
36747;SDS011;22716;51.556;5.080;2023-01-29T06:07:55;27.13;;;16.60;;
36747;SDS011;22716;51.556;5.080;2023-01-29T06:10:26;24.03;;;15.80;;
36747;SDS011;22716;51.556;5.080;2023-01-29T06:12:55;25.27;;;15.80;;
36747;SDS011;22716;51.556;5.080;2023-01-29T06:15:24;28.77;;;17.63;;
36747;SDS011;22716;51.556;5.080;2023-01-29T06:17:52;25.70;;;15.10;;
36747;SDS011;22716;51.556;5.080;2023-01-29T06:20:22;26.80;;;16.83;;
36747;SDS011;22716;51.556;5.080;2023-01-29T06:22:51;27.23;;;18.07;;
36747;SDS011;22716;51.556;5.080;2023-01-29T06:25:20;30.53;;;16.97;;
36747;SDS011;22716;51.556;5.080;2023-01-29T06:27:52;27.13;;;16.70;;
36747;SDS011;22716;51.556;5.080;2023-01-29T06:30:20;24.10;;;15.37;;
36747;SDS011;22716;51.556;5.080;2023-01-29T06:32:49;24.03;;;15.37;;
36747;SDS011;22716;51.556;5.080;2023-01-29T06:35:18;25.20;;;16.53;;
36747;SDS011;22716;51.556;5.080;2023-01-29T06:37:47;24.40;;;15.67;;
36747;SDS011;22716;51.556;5.080;2023-01-29T06:40:15;26.80;;;16.10;;
36747;SDS011;22716;51.556;5.080;2023-01-29T06:42:44;23.57;;;15.80;;
36747;SDS011;22716;51.556;5.080;2023-01-29T06:45:15;27.53;;;16.53;;
36747;SDS011;22716;51.556;5.080;2023-01-29T06:47:44;25.77;;;16.73;;
36747;SDS011;22716;51.556;5.080;2023-01-29T06:50:14;26.90;;;16.87;;
36747;SDS011;22716;51.556;5.080;2023-01-29T06:52:43;23.50;;;15.10;;
36747;SDS011;22716;51.556;5.080;2023-01-29T06:55:11;27.00;;;17.57;;
36747;SDS011;22716;51.556;5.080;2023-01-29T06:57:40;27.97;;;17.83;;
36747;SDS011;22716;51.556;5.080;2023-01-29T07:00:10;26.40;;;15.83;;
36747;SDS011;22716;51.556;5.080;2023-01-29T07:02:42;28.03;;;16.60;;
36747;SDS011;22716;51.556;5.080;2023-01-29T07:05:11;23.07;;;15.90;;
36747;SDS011;22716;51.556;5.080;2023-01-29T07:07:40;30.10;;;17.30;;
36747;SDS011;22716;51.556;5.080;2023-01-29T07:10:09;25.60;;;15.97;;
36747;SDS011;22716;51.556;5.080;2023-01-29T07:12:38;26.60;;;17.00;;
36747;SDS011;22716;51.556;5.080;2023-01-29T07:15:08;26.77;;;16.97;;
36747;SDS011;22716;51.556;5.080;2023-01-29T07:17:37;22.57;;;15.73;;
36747;SDS011;22716;51.556;5.080;2023-01-29T07:20:10;29.00;;;15.70;;
36747;SDS011;22716;51.556;5.080;2023-01-29T07:22:39;25.63;;;17.60;;
36747;SDS011;22716;51.556;5.080;2023-01-29T07:25:08;24.73;;;15.00;;
36747;SDS011;22716;51.556;5.080;2023-01-29T07:27:37;25.57;;;15.27;;
36747;SDS011;22716;51.556;5.080;2023-01-29T07:30:06;23.47;;;15.10;;
36747;SDS011;22716;51.556;5.080;2023-01-29T07:32:36;29.93;;;15.53;;
36747;SDS011;22716;51.556;5.080;2023-01-29T07:35:06;27.90;;;16.33;;
36747;SDS011;22716;51.556;5.080;2023-01-29T07:37:38;26.73;;;16.13;;
36747;SDS011;22716;51.556;5.080;2023-01-29T07:40:07;24.83;;;15.40;;
36747;SDS011;22716;51.556;5.080;2023-01-29T07:42:38;27.23;;;16.87;;
36747;SDS011;22716;51.556;5.080;2023-01-29T07:45:09;25.50;;;15.40;;
36747;SDS011;22716;51.556;5.080;2023-01-29T07:47:39;23.77;;;14.77;;
36747;SDS011;22716;51.556;5.080;2023-01-29T07:50:10;22.50;;;15.90;;
36747;SDS011;22716;51.556;5.080;2023-01-29T07:52:39;22.93;;;14.93;;
36747;SDS011;22716;51.556;5.080;2023-01-29T07:55:08;23.77;;;14.33;;
36747;SDS011;22716;51.556;5.080;2023-01-29T07:57:37;23.73;;;15.07;;
36747;SDS011;22716;51.556;5.080;2023-01-29T08:00:06;24.00;;;15.60;;
36747;SDS011;22716;51.556;5.080;2023-01-29T08:02:37;24.03;;;15.70;;
36747;SDS011;22716;51.556;5.080;2023-01-29T08:05:06;25.00;;;15.73;;
36747;SDS011;22716;51.556;5.080;2023-01-29T08:07:38;24.13;;;14.03;;
36747;SDS011;22716;51.556;5.080;2023-01-29T08:10:07;23.70;;;14.43;;
36747;SDS011;22716;51.556;5.080;2023-01-29T08:12:37;22.60;;;15.30;;
36747;SDS011;22716;51.556;5.080;2023-01-29T08:15:06;22.60;;;14.47;;
36747;SDS011;22716;51.556;5.080;2023-01-29T08:17:36;25.83;;;15.00;;
36747;SDS011;22716;51.556;5.080;2023-01-29T08:20:06;24.63;;;14.33;;
36747;SDS011;22716;51.556;5.080;2023-01-29T08:22:38;21.43;;;13.60;;
36747;SDS011;22716;51.556;5.080;2023-01-29T08:25:07;20.87;;;12.77;;
36747;SDS011;22716;51.556;5.080;2023-01-29T08:27:36;19.43;;;13.53;;
36747;SDS011;22716;51.556;5.080;2023-01-29T08:30:06;24.30;;;16.23;;
36747;SDS011;22716;51.556;5.080;2023-01-29T08:32:36;22.80;;;14.33;;
36747;SDS011;22716;51.556;5.080;2023-01-29T08:35:05;24.70;;;15.20;;
36747;SDS011;22716;51.556;5.080;2023-01-29T08:37:34;22.83;;;14.40;;
36747;SDS011;22716;51.556;5.080;2023-01-29T08:40:07;23.70;;;14.93;;
36747;SDS011;22716;51.556;5.080;2023-01-29T08:42:37;23.27;;;13.50;;
36747;SDS011;22716;51.556;5.080;2023-01-29T08:45:07;22.60;;;14.00;;
36747;SDS011;22716;51.556;5.080;2023-01-29T08:47:37;20.07;;;13.50;;
36747;SDS011;22716;51.556;5.080;2023-01-29T08:50:11;24.17;;;13.68;;
36747;SDS011;22716;51.556;5.080;2023-01-29T08:52:40;22.53;;;14.17;;
36747;SDS011;22716;51.556;5.080;2023-01-29T08:55:12;27.57;;;16.17;;
36747;SDS011;22716;51.556;5.080;2023-01-29T08:57:41;22.17;;;13.80;;
36747;SDS011;22716;51.556;5.080;2023-01-29T09:00:10;21.53;;;13.80;;
36747;SDS011;22716;51.556;5.080;2023-01-29T09:02:40;26.47;;;13.87;;
36747;SDS011;22716;51.556;5.080;2023-01-29T09:05:09;21.77;;;14.00;;
36747;SDS011;22716;51.556;5.080;2023-01-29T09:07:38;19.77;;;12.40;;
36747;SDS011;22716;51.556;5.080;2023-01-29T09:10:07;20.90;;;13.17;;
36747;SDS011;22716;51.556;5.080;2023-01-29T09:12:40;24.80;;;14.03;;
36747;SDS011;22716;51.556;5.080;2023-01-29T09:15:09;19.63;;;13.10;;
36747;SDS011;22716;51.556;5.080;2023-01-29T09:17:39;20.80;;;13.80;;
36747;SDS011;22716;51.556;5.080;2023-01-29T09:20:09;24.20;;;13.50;;
36747;SDS011;22716;51.556;5.080;2023-01-29T09:22:38;23.27;;;14.13;;
36747;SDS011;22716;51.556;5.080;2023-01-29T09:25:07;23.77;;;14.03;;
36747;SDS011;22716;51.556;5.080;2023-01-29T09:27:40;24.73;;;12.90;;
36747;SDS011;22716;51.556;5.080;2023-01-29T09:30:09;24.00;;;13.50;;
36747;SDS011;22716;51.556;5.080;2023-01-29T09:32:39;23.00;;;13.63;;
36747;SDS011;22716;51.556;5.080;2023-01-29T09:35:08;21.83;;;13.03;;
36747;SDS011;22716;51.556;5.080;2023-01-29T09:37:37;26.47;;;13.63;;
36747;SDS011;22716;51.556;5.080;2023-01-29T09:40:07;22.83;;;14.13;;
36747;SDS011;22716;51.556;5.080;2023-01-29T09:42:54;25.52;;;14.25;;
36747;SDS011;22716;51.556;5.080;2023-01-29T09:45:27;25.10;;;14.53;;
36747;SDS011;22716;51.556;5.080;2023-01-29T09:47:58;23.50;;;14.57;;
36747;SDS011;22716;51.556;5.080;2023-01-29T09:50:30;20.53;;;13.93;;
36747;SDS011;22716;51.556;5.080;2023-01-29T09:53:06;21.98;;;14.18;;
36747;SDS011;22716;51.556;5.080;2023-01-29T09:55:42;21.53;;;13.40;;
36747;SDS011;22716;51.556;5.080;2023-01-29T09:58:20;24.80;;;15.85;;
36747;SDS011;22716;51.556;5.080;2023-01-29T10:00:55;22.30;;;13.30;;
36747;SDS011;22716;51.556;5.080;2023-01-29T10:03:40;21.77;;;13.93;;
36747;SDS011;22716;51.556;5.080;2023-01-29T10:06:38;20.83;;;13.40;;
36747;SDS011;22716;51.556;5.080;2023-01-29T10:09:31;21.58;;;14.68;;
36747;SDS011;22716;51.556;5.080;2023-01-29T10:12:14;23.13;;;14.53;;
36747;SDS011;22716;51.556;5.080;2023-01-29T10:14:58;22.80;;;13.37;;
36747;SDS011;22716;51.556;5.080;2023-01-29T10:17:39;22.23;;;12.73;;
36747;SDS011;22716;51.556;5.080;2023-01-29T10:23:18;21.03;;;14.23;;
36747;SDS011;22716;51.556;5.080;2023-01-29T10:25:52;25.67;;;13.33;;
36747;SDS011;22716;51.556;5.080;2023-01-29T10:28:23;19.93;;;11.63;;
36747;SDS011;22716;51.556;5.080;2023-01-29T10:30:59;20.03;;;13.53;;
36747;SDS011;22716;51.556;5.080;2023-01-29T10:33:32;20.40;;;13.23;;
36747;SDS011;22716;51.556;5.080;2023-01-29T10:36:07;20.20;;;12.80;;
36747;SDS011;22716;51.556;5.080;2023-01-29T10:38:42;20.88;;;13.13;;
36747;SDS011;22716;51.556;5.080;2023-01-29T10:41:21;21.40;;;13.63;;
36747;SDS011;22716;51.556;5.080;2023-01-29T10:44:13;20.47;;;13.23;;
36747;SDS011;22716;51.556;5.080;2023-01-29T10:46:59;20.40;;;11.87;;
36747;SDS011;22716;51.556;5.080;2023-01-29T10:49:58;19.27;;;12.73;;
36747;SDS011;22716;51.556;5.080;2023-01-29T10:52:43;24.03;;;13.77;;
36747;SDS011;22716;51.556;5.080;2023-01-29T10:55:26;23.10;;;13.90;;
36747;SDS011;22716;51.556;5.080;2023-01-29T10:58:08;19.10;;;11.93;;
36747;SDS011;22716;51.556;5.080;2023-01-29T11:00:46;25.03;;;12.43;;
36747;SDS011;22716;51.556;5.080;2023-01-29T11:03:20;18.90;;;12.07;;
36747;SDS011;22716;51.556;5.080;2023-01-29T11:05:53;21.10;;;13.27;;
36747;SDS011;22716;51.556;5.080;2023-01-29T11:08:27;20.10;;;12.90;;
36747;SDS011;22716;51.556;5.080;2023-01-29T11:11:04;21.93;;;13.30;;
36747;SDS011;22716;51.556;5.080;2023-01-29T11:13:38;20.88;;;13.52;;
36747;SDS011;22716;51.556;5.080;2023-01-29T11:16:10;20.67;;;13.35;;
36747;SDS011;22716;51.556;5.080;2023-01-29T11:18:52;17.83;;;12.27;;
36747;SDS011;22716;51.556;5.080;2023-01-29T11:21:25;21.93;;;14.07;;
36747;SDS011;22716;51.556;5.080;2023-01-29T11:24:06;20.87;;;13.07;;
36747;SDS011;22716;51.556;5.080;2023-01-29T11:26:41;20.03;;;13.67;;
36747;SDS011;22716;51.556;5.080;2023-01-29T11:31:57;18.80;;;13.13;;
36747;SDS011;22716;51.556;5.080;2023-01-29T11:34:30;19.57;;;12.23;;
36747;SDS011;22716;51.556;5.080;2023-01-29T11:37:00;18.43;;;13.07;;
36747;SDS011;22716;51.556;5.080;2023-01-29T11:39:30;20.97;;;13.07;;
36747;SDS011;22716;51.556;5.080;2023-01-29T11:42:00;20.27;;;13.00;;
36747;SDS011;22716;51.556;5.080;2023-01-29T11:44:33;19.37;;;13.13;;
36747;SDS011;22716;51.556;5.080;2023-01-29T11:47:11;19.50;;;13.03;;
36747;SDS011;22716;51.556;5.080;2023-01-29T11:49:51;21.07;;;12.93;;
36747;SDS011;22716;51.556;5.080;2023-01-29T11:52:22;20.60;;;13.57;;
36747;SDS011;22716;51.556;5.080;2023-01-29T11:54:53;23.37;;;14.70;;
36747;SDS011;22716;51.556;5.080;2023-01-29T11:57:27;19.63;;;12.57;;
36747;SDS011;22716;51.556;5.080;2023-01-29T11:59:59;24.00;;;13.60;;
36747;SDS011;22716;51.556;5.080;2023-01-29T12:02:35;17.17;;;12.33;;
36747;SDS011;22716;51.556;5.080;2023-01-29T12:05:12;22.50;;;14.87;;
36747;SDS011;22716;51.556;5.080;2023-01-29T12:07:44;24.17;;;15.13;;
36747;SDS011;22716;51.556;5.080;2023-01-29T12:10:29;20.10;;;13.63;;
36747;SDS011;22716;51.556;5.080;2023-01-29T12:13:03;24.13;;;15.45;;
36747;SDS011;22716;51.556;5.080;2023-01-29T12:15:33;23.63;;;15.50;;
36747;SDS011;22716;51.556;5.080;2023-01-29T12:18:04;21.73;;;14.93;;
36747;SDS011;22716;51.556;5.080;2023-01-29T12:20:42;27.63;;;16.20;;
36747;SDS011;22716;51.556;5.080;2023-01-29T12:23:20;27.07;;;15.40;;
36747;SDS011;22716;51.556;5.080;2023-01-29T12:25:57;25.20;;;14.83;;
36747;SDS011;22716;51.556;5.080;2023-01-29T12:31:10;25.50;;;16.63;;
36747;SDS011;22716;51.556;5.080;2023-01-29T12:33:51;26.73;;;15.97;;
36747;SDS011;22716;51.556;5.080;2023-01-29T12:39:00;26.77;;;14.70;;
36747;SDS011;22716;51.556;5.080;2023-01-29T12:41:31;24.63;;;14.87;;
36747;SDS011;22716;51.556;5.080;2023-01-29T12:44:16;22.87;;;14.73;;
36747;SDS011;22716;51.556;5.080;2023-01-29T12:46:49;26.73;;;16.17;;
36747;SDS011;22716;51.556;5.080;2023-01-29T12:49:22;26.57;;;16.27;;
36747;SDS011;22716;51.556;5.080;2023-01-29T12:51:57;24.30;;;16.70;;
36747;SDS011;22716;51.556;5.080;2023-01-29T12:54:33;25.50;;;15.90;;
36747;SDS011;22716;51.556;5.080;2023-01-29T12:57:07;23.38;;;16.42;;
36747;SDS011;22716;51.556;5.080;2023-01-29T12:59:43;23.53;;;15.53;;
36747;SDS011;22716;51.556;5.080;2023-01-29T13:02:24;25.52;;;15.68;;
36747;SDS011;22716;51.556;5.080;2023-01-29T13:05:00;26.37;;;16.20;;
36747;SDS011;22716;51.556;5.080;2023-01-29T13:07:36;24.93;;;15.73;;
36747;SDS011;22716;51.556;5.080;2023-01-29T13:10:12;28.60;;;16.77;;
36747;SDS011;22716;51.556;5.080;2023-01-29T13:12:47;27.97;;;16.90;;
36747;SDS011;22716;51.556;5.080;2023-01-29T13:15:21;27.93;;;16.47;;
36747;SDS011;22716;51.556;5.080;2023-01-29T13:17:56;27.30;;;17.33;;
36747;SDS011;22716;51.556;5.080;2023-01-29T13:20:34;29.27;;;16.63;;
36747;SDS011;22716;51.556;5.080;2023-01-29T13:23:11;26.43;;;17.47;;
36747;SDS011;22716;51.556;5.080;2023-01-29T13:25:45;27.27;;;16.30;;
36747;SDS011;22716;51.556;5.080;2023-01-29T13:28:18;27.60;;;17.03;;
36747;SDS011;22716;51.556;5.080;2023-01-29T13:33:39;28.30;;;17.33;;
36747;SDS011;22716;51.556;5.080;2023-01-29T13:36:13;26.27;;;17.90;;
36747;SDS011;22716;51.556;5.080;2023-01-29T13:38:48;30.67;;;17.53;;
36747;SDS011;22716;51.556;5.080;2023-01-29T13:41:32;23.50;;;17.00;;
36747;SDS011;22716;51.556;5.080;2023-01-29T13:44:04;29.80;;;17.60;;
36747;SDS011;22716;51.556;5.080;2023-01-29T13:46:47;25.83;;;16.30;;
36747;SDS011;22716;51.556;5.080;2023-01-29T13:49:31;28.40;;;17.47;;
36747;SDS011;22716;51.556;5.080;2023-01-29T13:52:13;31.87;;;18.33;;
36747;SDS011;22716;51.556;5.080;2023-01-29T13:54:52;28.77;;;17.50;;
36747;SDS011;22716;51.556;5.080;2023-01-29T13:57:32;26.13;;;16.30;;
36747;SDS011;22716;51.556;5.080;2023-01-29T14:09:56;24.47;;;17.30;;
36747;SDS011;22716;51.556;5.080;2023-01-29T14:12:34;27.67;;;16.60;;
36747;SDS011;22716;51.556;5.080;2023-01-29T14:23:35;25.10;;;15.30;;
36747;SDS011;22716;51.556;5.080;2023-01-29T14:26:19;27.40;;;16.40;;
36747;SDS011;22716;51.556;5.080;2023-01-29T14:29:00;28.70;;;17.00;;
36747;SDS011;22716;51.556;5.080;2023-01-29T14:31:37;32.23;;;17.20;;
36747;SDS011;22716;51.556;5.080;2023-01-29T14:34:13;29.80;;;16.33;;
36747;SDS011;22716;51.556;5.080;2023-01-29T14:36:47;26.40;;;15.50;;
36747;SDS011;22716;51.556;5.080;2023-01-29T14:39:21;26.33;;;16.57;;
36747;SDS011;22716;51.556;5.080;2023-01-29T14:41:55;27.03;;;15.43;;
36747;SDS011;22716;51.556;5.080;2023-01-29T14:50:41;24.20;;;15.50;;
36747;SDS011;22716;51.556;5.080;2023-01-29T14:53:23;25.53;;;15.70;;
36747;SDS011;22716;51.556;5.080;2023-01-29T14:56:00;22.73;;;14.87;;
36747;SDS011;22716;51.556;5.080;2023-01-29T14:58:33;24.50;;;15.33;;
36747;SDS011;22716;51.556;5.080;2023-01-29T15:01:13;22.60;;;15.77;;
36747;SDS011;22716;51.556;5.080;2023-01-29T15:03:46;22.90;;;15.73;;
36747;SDS011;22716;51.556;5.080;2023-01-29T15:06:19;20.97;;;15.00;;
36747;SDS011;22716;51.556;5.080;2023-01-29T15:08:58;22.37;;;14.30;;
36747;SDS011;22716;51.556;5.080;2023-01-29T15:11:35;20.97;;;14.47;;
36747;SDS011;22716;51.556;5.080;2023-01-29T15:14:19;21.73;;;13.70;;
36747;SDS011;22716;51.556;5.080;2023-01-29T15:16:56;20.27;;;14.63;;
36747;SDS011;22716;51.556;5.080;2023-01-29T15:19:34;29.43;;;16.07;;
36747;SDS011;22716;51.556;5.080;2023-01-29T15:22:08;21.43;;;13.80;;
36747;SDS011;22716;51.556;5.080;2023-01-29T15:24:39;18.10;;;11.70;;
36747;SDS011;22716;51.556;5.080;2023-01-29T15:27:11;18.83;;;12.47;;
36747;SDS011;22716;51.556;5.080;2023-01-29T15:29:43;19.53;;;13.03;;
36747;SDS011;22716;51.556;5.080;2023-01-29T15:32:23;22.80;;;13.30;;
36747;SDS011;22716;51.556;5.080;2023-01-29T15:34:55;23.80;;;13.33;;
36747;SDS011;22716;51.556;5.080;2023-01-29T15:37:26;23.90;;;15.33;;